createdAt,value
2023-03-22T00:01:46.310Z,1.85
2023-03-22T00:04:12.886Z,1.90
2023-03-22T00:06:39.551Z,2.03
2023-03-22T00:09:06.092Z,1.80
2023-03-22T00:11:32.544Z,1.70
2023-03-22T00:13:59.655Z,1.92
2023-03-22T00:16:26.558Z,2.10
2023-03-22T00:18:53.145Z,2.22
2023-03-22T00:21:19.853Z,2.72
2023-03-22T00:23:46.380Z,2.55
2023-03-22T00:26:14.771Z,3.13
2023-03-22T00:28:42.883Z,2.13
2023-03-22T00:31:10.872Z,2.20
2023-03-22T00:33:37.791Z,2.15
2023-03-22T00:36:08.384Z,2.25
2023-03-22T00:38:42.837Z,2.38
2023-03-22T00:41:16.375Z,2.25
2023-03-22T00:43:45.127Z,1.95
2023-03-22T00:46:12.827Z,1.95
2023-03-22T00:48:39.804Z,2.50
2023-03-22T00:51:07.049Z,2.40
2023-03-22T00:53:36.247Z,2.20
2023-03-22T00:56:03.772Z,2.08
2023-03-22T00:58:39.109Z,2.42
2023-03-22T01:01:07.338Z,2.13
2023-03-22T01:03:34.912Z,2.40
2023-03-22T01:06:02.190Z,2.15
2023-03-22T01:08:33.236Z,2.03
2023-03-22T01:11:01.284Z,2.40
2023-03-22T01:13:28.969Z,2.30
2023-03-22T01:15:55.946Z,2.60
2023-03-22T01:18:23.428Z,2.70
2023-03-22T01:20:51.373Z,2.72
2023-03-22T01:23:17.914Z,2.25
2023-03-22T01:25:44.408Z,1.98
2023-03-22T01:28:11.016Z,1.98
2023-03-22T01:30:40.525Z,2.90
2023-03-22T01:33:07.663Z,2.00
2023-03-22T01:35:35.405Z,2.00
2023-03-22T01:38:02.199Z,2.13
2023-03-22T01:40:28.798Z,2.20
2023-03-22T01:42:56.719Z,2.05
2023-03-22T01:45:40.603Z,2.00
2023-03-22T01:48:14.511Z,2.20
2023-03-22T01:50:45.330Z,2.30
2023-03-22T01:53:15.380Z,2.10
2023-03-22T01:55:42.475Z,1.98
2023-03-22T01:58:17.986Z,2.28
2023-03-22T02:00:52.946Z,2.60
2023-03-22T02:03:58.480Z,2.45
2023-03-22T02:06:26.927Z,2.15
2023-03-22T02:08:59.911Z,2.97
2023-03-22T02:11:38.567Z,2.33
2023-03-22T02:14:38.612Z,2.40
2023-03-22T02:18:19.510Z,2.20
2023-03-22T02:21:19.095Z,2.53
2023-03-22T02:23:57.808Z,2.40
2023-03-22T02:26:41.478Z,2.67
2023-03-22T02:29:26.353Z,2.28
2023-03-22T02:32:01.497Z,2.95
2023-03-22T02:35:12.072Z,3.08
2023-03-22T02:38:00.237Z,2.95
2023-03-22T02:40:41.498Z,3.15
2023-03-22T02:43:38.601Z,3.33
2023-03-22T02:46:22.851Z,3.22
2023-03-22T02:49:02.056Z,3.53
2023-03-22T02:51:42.921Z,4.00
2023-03-22T02:54:18.436Z,4.20
2023-03-22T02:57:08.366Z,4.60
2023-03-22T02:59:39.353Z,4.63
2023-03-22T03:02:11.221Z,5.28
2023-03-22T03:04:46.239Z,5.50
2023-03-22T03:07:15.594Z,5.95
2023-03-22T03:09:44.021Z,6.20
2023-03-22T03:12:21.091Z,5.72
2023-03-22T03:14:48.454Z,6.28
2023-03-22T03:17:33.204Z,6.80
2023-03-22T03:20:21.988Z,7.38
2023-03-22T03:23:02.295Z,6.43
2023-03-22T03:25:46.695Z,6.97
2023-03-22T03:28:38.399Z,6.65
2023-03-22T03:31:16.141Z,7.28
2023-03-22T03:34:10.112Z,6.80
2023-03-22T03:36:40.718Z,8.32
2023-03-22T03:39:12.207Z,7.85
2023-03-22T03:41:40.624Z,7.32
2023-03-22T03:44:08.736Z,7.43
2023-03-22T03:46:36.350Z,8.00
2023-03-22T03:49:04.563Z,8.60
2023-03-22T03:51:33.362Z,7.95
2023-03-22T03:53:59.880Z,8.40
2023-03-22T03:56:26.319Z,8.40
2023-03-22T03:58:54.341Z,8.50
2023-03-22T04:01:21.325Z,8.23
2023-03-22T04:03:57.715Z,7.60
2023-03-22T04:06:39.531Z,7.82
2023-03-22T04:09:11.879Z,8.70
2023-03-22T04:11:42.775Z,7.75
2023-03-22T04:14:09.726Z,8.10
2023-03-22T04:16:37.660Z,8.38
2023-03-22T04:19:06.308Z,8.07
2023-03-22T04:21:32.818Z,8.30
2023-03-22T04:24:01.266Z,7.15
2023-03-22T04:26:32.484Z,8.30
2023-03-22T04:29:17.299Z,7.15
2023-03-22T04:31:48.779Z,8.07
2023-03-22T04:34:24.394Z,7.75
2023-03-22T04:36:57.374Z,7.55
2023-03-22T04:39:28.381Z,7.50
2023-03-22T04:42:33.492Z,7.78
2023-03-22T04:45:29.377Z,7.57
2023-03-22T04:48:00.227Z,7.75
2023-03-22T04:50:28.408Z,7.50
2023-03-22T04:52:59.535Z,7.20
2023-03-22T04:55:27.535Z,7.05
2023-03-22T04:57:54.668Z,7.38
2023-03-22T05:00:23.223Z,6.78
2023-03-22T05:02:50.618Z,6.25
2023-03-22T05:05:25.847Z,7.35
2023-03-22T05:07:52.759Z,6.78
2023-03-22T05:10:19.527Z,6.95
2023-03-22T05:12:46.174Z,7.28
2023-03-22T05:15:18.312Z,6.50
2023-03-22T05:17:45.770Z,6.22
2023-03-22T05:20:12.338Z,6.82
2023-03-22T05:22:41.215Z,6.47
2023-03-22T05:25:10.714Z,6.30
2023-03-22T05:27:39.626Z,6.07
2023-03-22T05:30:33.647Z,6.25
2023-03-22T05:33:06.855Z,5.38
2023-03-22T05:35:41.780Z,6.40
2023-03-22T05:38:10.604Z,5.95
2023-03-22T05:43:08.492Z,5.30
2023-03-22T05:45:39.621Z,5.75
2023-03-22T05:48:16.964Z,5.68
2023-03-22T05:50:43.921Z,5.72
2023-03-22T05:53:11.876Z,4.97
2023-03-22T05:56:00.830Z,5.32
2023-03-22T05:58:31.651Z,5.03
2023-03-22T06:01:03.996Z,5.18
2023-03-22T06:03:56.580Z,5.15
2023-03-22T06:06:35.071Z,5.25
2023-03-22T06:09:17.199Z,4.82
2023-03-22T06:11:48.021Z,5.10
2023-03-22T06:14:15.885Z,5.03
2023-03-22T06:17:01.131Z,5.25
2023-03-22T06:19:27.751Z,4.90
2023-03-22T06:21:57.166Z,4.57
2023-03-22T06:24:26.343Z,4.88
2023-03-22T06:26:53.184Z,4.45
2023-03-22T06:29:19.826Z,4.38
2023-03-22T06:31:47.839Z,4.78
2023-03-22T06:34:14.475Z,4.60
2023-03-22T06:36:42.439Z,4.90
2023-03-22T06:39:15.900Z,4.40
2023-03-22T06:41:44.370Z,4.28
2023-03-22T06:44:11.310Z,4.15
2023-03-22T06:47:00.786Z,3.90
2023-03-22T06:49:43.406Z,4.18
2023-03-22T06:52:15.589Z,3.83
2023-03-22T06:54:42.367Z,3.83
2023-03-22T06:57:09.944Z,3.70
2023-03-22T06:59:36.391Z,3.90
2023-03-22T07:02:03.248Z,3.63
2023-03-22T07:04:30.388Z,3.95
2023-03-22T07:07:12.790Z,3.50
2023-03-22T07:09:40.541Z,3.40
2023-03-22T07:12:07.205Z,3.47
2023-03-22T07:14:33.938Z,3.45
2023-03-22T07:17:08.698Z,3.17
2023-03-22T07:19:35.544Z,3.17
2023-03-22T07:22:06.737Z,3.20
2023-03-22T07:24:36.014Z,3.58
2023-03-22T07:27:03.703Z,2.80
2023-03-22T07:29:31.694Z,2.67
2023-03-22T07:31:58.893Z,2.83
2023-03-22T07:34:31.535Z,2.95
2023-03-22T07:37:04.956Z,2.78
2023-03-22T07:39:31.925Z,2.60
2023-03-22T07:41:58.744Z,2.22
2023-03-22T07:44:25.827Z,2.70
2023-03-22T07:47:15.502Z,2.58
2023-03-22T07:49:55.846Z,2.55
2023-03-22T07:52:27.509Z,2.42
2023-03-22T07:54:54.088Z,2.50
2023-03-22T07:57:20.734Z,2.42
2023-03-22T07:59:53.881Z,2.50
2023-03-22T08:02:20.830Z,2.40
2023-03-22T08:04:55.749Z,2.87
2023-03-22T08:07:31.574Z,2.90
2023-03-22T08:09:59.323Z,2.25
2023-03-22T08:12:27.988Z,2.40
2023-03-22T08:15:03.765Z,2.40
2023-03-22T08:17:31.786Z,2.70
2023-03-22T08:19:58.620Z,3.13
2023-03-22T08:22:40.173Z,2.88
2023-03-22T08:25:18.814Z,2.35
2023-03-22T08:27:45.854Z,2.90
2023-03-22T08:30:13.579Z,2.72
2023-03-22T08:32:41.013Z,2.38
2023-03-22T08:35:08.722Z,2.65
2023-03-22T08:37:35.381Z,2.78
2023-03-22T08:40:07.814Z,2.60
2023-03-22T08:42:51.800Z,2.60
2023-03-22T08:45:18.749Z,2.80
2023-03-22T08:47:54.831Z,2.50
2023-03-22T08:50:23.648Z,2.63
2023-03-22T08:53:04.218Z,2.22
2023-03-22T08:55:35.278Z,2.95
2023-03-22T08:58:12.596Z,2.53
2023-03-22T09:00:48.671Z,2.85
2023-03-22T09:03:24.900Z,3.00
2023-03-22T09:05:51.566Z,2.85
2023-03-22T09:08:19.493Z,2.85
2023-03-22T09:10:52.493Z,2.78
2023-03-22T09:13:21.737Z,2.80
2023-03-22T09:15:54.226Z,2.70
2023-03-22T09:18:25.327Z,2.70
2023-03-22T09:20:53.861Z,3.17
2023-03-22T09:23:24.976Z,2.70
2023-03-22T09:25:52.296Z,2.72
2023-03-22T09:28:23.906Z,3.17
2023-03-22T09:30:51.367Z,2.78
2023-03-22T09:33:17.928Z,3.00
2023-03-22T09:35:49.225Z,2.42
2023-03-22T09:38:16.315Z,2.28
2023-03-22T09:41:00.754Z,2.40
2023-03-22T09:43:35.691Z,2.55
2023-03-22T09:46:06.594Z,2.30
2023-03-22T09:48:37.080Z,2.50
2023-03-22T09:51:05.576Z,2.50
2023-03-22T09:53:32.885Z,2.28
2023-03-22T09:56:20.881Z,2.80
2023-03-22T09:58:51.064Z,2.50
2023-03-22T10:01:35.217Z,3.10
2023-03-22T10:04:06.940Z,2.90
2023-03-22T10:06:33.525Z,3.40
2023-03-22T10:09:13.804Z,2.45
2023-03-22T10:11:55.734Z,2.58
2023-03-22T10:17:06.625Z,2.33
2023-03-22T10:19:58.192Z,3.00
2023-03-22T10:22:33.829Z,2.75
2023-03-22T10:25:01.498Z,2.90
2023-03-22T10:27:30.551Z,3.25
2023-03-22T10:30:08.396Z,2.78
2023-03-22T10:32:56.857Z,2.40
2023-03-22T10:35:24.382Z,2.58
2023-03-22T10:37:52.559Z,2.28
2023-03-22T10:40:23.823Z,2.85
2023-03-22T10:42:57.001Z,2.55
2023-03-22T10:45:26.213Z,2.67
2023-03-22T10:48:03.856Z,2.50
2023-03-22T10:50:34.921Z,2.67
2023-03-22T10:53:05.924Z,2.33
2023-03-22T10:55:32.811Z,2.40
2023-03-22T10:58:14.716Z,2.33
2023-03-22T11:03:43.018Z,2.53
2023-03-22T11:06:13.321Z,2.55
2023-03-22T11:08:41.763Z,2.05
2023-03-22T11:11:16.465Z,2.03
2023-03-22T11:13:43.161Z,2.08
2023-03-22T11:16:09.817Z,2.13
2023-03-22T11:18:36.505Z,2.60
2023-03-22T11:21:09.667Z,2.70
2023-03-22T11:23:38.747Z,2.40
2023-03-22T11:26:11.332Z,2.10
2023-03-22T11:28:47.489Z,1.77
2023-03-22T11:31:17.115Z,2.08
2023-03-22T11:33:55.900Z,2.28
2023-03-22T11:36:23.214Z,2.38
2023-03-22T11:38:57.123Z,1.80
2023-03-22T11:41:27.139Z,2.35
2023-03-22T11:44:01.119Z,2.22
2023-03-22T11:46:29.402Z,2.22
2023-03-22T11:49:02.978Z,2.30
2023-03-22T11:51:33.349Z,2.10
2023-03-22T11:54:20.646Z,2.20
2023-03-22T11:56:49.394Z,1.73
2023-03-22T11:59:23.934Z,2.50
2023-03-22T12:02:20.406Z,2.50
2023-03-22T12:04:50.020Z,2.60
2023-03-22T12:07:21.504Z,2.20
2023-03-22T12:10:11.985Z,2.38
2023-03-22T12:13:00.641Z,2.40
2023-03-22T12:15:34.532Z,2.65
2023-03-22T12:18:08.377Z,2.45
2023-03-22T12:20:41.979Z,2.83
2023-03-22T12:23:35.245Z,3.10
2023-03-22T12:26:21.533Z,2.33
2023-03-22T12:28:56.368Z,2.67
2023-03-22T12:31:31.915Z,3.10
2023-03-22T12:34:04.944Z,2.95
2023-03-22T12:36:42.955Z,2.97
2023-03-22T12:39:19.330Z,2.22
2023-03-22T12:41:49.520Z,1.83
2023-03-22T12:44:25.130Z,2.63
2023-03-22T12:46:57.811Z,2.33
2023-03-22T12:49:32.617Z,2.30
2023-03-22T12:52:17.734Z,2.50
2023-03-22T12:54:47.466Z,2.55
2023-03-22T12:57:16.638Z,2.20
2023-03-22T12:59:48.895Z,2.25
2023-03-22T13:02:27.304Z,2.60
2023-03-22T13:04:59.213Z,2.00
2023-03-22T13:07:31.658Z,2.30
2023-03-22T13:10:00.029Z,2.35
2023-03-22T13:12:31.663Z,2.38
2023-03-22T13:17:27.392Z,2.28
2023-03-22T13:20:11.379Z,2.22
2023-03-22T13:22:37.910Z,3.00
2023-03-22T13:25:08.691Z,2.97
2023-03-22T13:28:12.798Z,2.60
2023-03-22T13:30:52.682Z,2.45
2023-03-22T13:33:26.448Z,2.67
2023-03-22T13:35:57.668Z,2.40
2023-03-22T13:38:27.688Z,2.70
2023-03-22T13:41:22.196Z,2.78
2023-03-22T13:43:51.188Z,2.80
2023-03-22T13:46:17.895Z,2.50
2023-03-22T13:48:51.886Z,2.60
2023-03-22T13:51:30.979Z,2.70
2023-03-22T13:54:13.129Z,2.50
2023-03-22T13:56:42.996Z,3.20
2023-03-22T13:59:27.931Z,3.47
2023-03-22T14:02:00.169Z,3.08
2023-03-22T14:04:37.140Z,2.75
2023-03-22T14:07:45.278Z,2.92
2023-03-22T14:10:36.463Z,2.80
2023-03-22T14:13:02.931Z,3.67
2023-03-22T14:15:36.181Z,3.10
2023-03-22T14:18:17.805Z,3.88
2023-03-22T14:20:48.210Z,3.42
